MMZC/ZCL METAR and TAF weather

Enter ICAO airport designator
Station Type Date Time Source
MMZC METAR 2021/02/27 22:40 UTC NOAA

MMZC 272240Z 22018KT 10SM BKN200 25/M02 A3011 RMK 8/009


Station Type Date Time Source
MMZC Decoded METAR 2021/02/27 22:40 UTC NOAA

Zacatecas Airport, Mexico (MMZC) 22-54N 102-41W
Feb 27, 2021 - 05:40 PM EST / 2021.02.27 2240 UTC
Wind: from the SW (220 degrees) at 21 MPH (18 KT):0
Visibility: 10 mile(s):0
Sky conditions: mostly cloudy
Temperature: 77 F (25 C)
Dew Point: 28 F (-2 C)
Relative Humidity: 16%
Pressure (altimeter): 30.11 in. Hg (1019 hPa)
ob: MMZC 272240Z 22018KT 10SM BKN200 25/M02 A3011 RMK 8/009
cycle: 22

Station Type Date Time Source
MMZC TAF 2021/02/27 18:39 UTC NOAA

TAF MMZC 271636Z 2718/2824 23012KT P6SM SCT100 BKN220 TX26/2722Z TN10/2813Z
BECMG 2720/2721 25015G25KT
FM280200 25015KT P6SM BKN250
BECMG 2809/2810 21008KT
FM281800 23015KT P6SM BKN250
BECMG 2820/2821 25015G25KT

Example: see airport list